Weaver, AL (36277)

3:03 AM CST on November 28, 2014 (GMT -0600)
Choccolocco Community | Change Station
CLOSE
Current Station
Personal Weather Station
Location: Anniston, AL
Elevation: 865 ft
Nearby Weather Stations

Elev 865 ft 33.69 °N, 85.72 °W | Updated 1 second ago

Clear
Clear
30.0 °F
Feels Like 30 °F
N
2.0
Wind Variable Wind from North
Gusts 3.0 mph

Today
High -- | Low -- °F
--% Chance of Precip.
Yesterday
High -- | Low -- °F
Precip. -- in
6:27 AM 4:35 PM
Waxing Crescent, 38% visible
Pressure 30.45 in
Visibility 10.0 miles
Clouds Clear
Windchill 30 °F
Dew Point 23 °F
Humidity 74%
Rainfall 0.00 in
Snow Depth Not available.
UV 0 out of 12
Pollen .70 out of 12
Air Quality Not available.
Flu Activity Not available.
METAR KANB 280853Z AUTO 01005KT 10SM CLR M01/M04 A3042 RMK AO2 SLP310 T10061044 56001

More Conditions Fewer Conditions

Pressure 30.45 in
Visibility 10.0 miles
Clouds Clear
Windchill 30 °F
Dew Point 23 °F
Humidity 74%
Rainfall 0.00 in
Snow Depth Not available.
UV 0 out of 12
Pollen .70 out of 12
Air Quality Not available.
Flu Activity Not available.
METAR KANB 280853Z AUTO 01005KT 10SM CLR M01/M04 A3042 RMK AO2 SLP310 T10061044 56001

More Conditions Fewer Conditions

10-Day Weather Forecast

Almanac

Astronomy

Nov. 28, 2014 Rise Set
Actual Time
Civil Twilight
Nautical Twilight
Astronomical Twilight
Moon
Length of Visible Light
Length of Day
Tomorrow will be .
, % of the Moon is Illuminated

Today's Extremes

State Highs State Lows

Community

WunderPhotos

Upload Photos

1,774,190 photos uploaded!

WunderBlogs® & News

Nearby

Air Quality

  Air Quality AQ Index Pollutant
Not available.

Snow Depth

Station Depth Elevation

Earthquake Activity

City Distance Mag. Time & Date
Minimum magnitude displayed is 2.5.

Coastal Water Temperatures

Place Temperature

Nearby Weather Stations